sensor_id;sensor_type;location;lat;lon;timestamp;P1;durP1;ratioP1;P2;durP2;ratioP2
75156;SDS011;63736;50.076;8.198;2023-04-09T00:00:23;1244.80;;;630.50;;
75156;SDS011;63736;50.076;8.198;2023-04-09T00:02:49;1251.37;;;637.10;;
75156;SDS011;63736;50.076;8.198;2023-04-09T00:05:14;1248.57;;;635.73;;
75156;SDS011;63736;50.076;8.198;2023-04-09T00:07:39;1254.33;;;654.20;;
75156;SDS011;63736;50.076;8.198;2023-04-09T00:10:05;1244.57;;;654.73;;
75156;SDS011;63736;50.076;8.198;2023-04-09T00:12:30;1464.07;;;647.30;;
75156;SDS011;63736;50.076;8.198;2023-04-09T00:14:56;1324.97;;;640.13;;
75156;SDS011;63736;50.076;8.198;2023-04-09T00:17:21;1297.37;;;644.17;;
75156;SDS011;63736;50.076;8.198;2023-04-09T00:19:47;1280.17;;;649.17;;
75156;SDS011;63736;50.076;8.198;2023-04-09T00:22:12;1271.70;;;672.27;;
75156;SDS011;63736;50.076;8.198;2023-04-09T00:24:37;1260.63;;;667.35;;
75156;SDS011;63736;50.076;8.198;2023-04-09T00:27:03;1254.23;;;665.67;;
75156;SDS011;63736;50.076;8.198;2023-04-09T00:29:28;1244.13;;;663.10;;
75156;SDS011;63736;50.076;8.198;2023-04-09T00:31:53;1252.10;;;667.93;;
75156;SDS011;63736;50.076;8.198;2023-04-09T00:34:18;1243.83;;;665.87;;
75156;SDS011;63736;50.076;8.198;2023-04-09T00:36:44;1242.30;;;666.53;;
75156;SDS011;63736;50.076;8.198;2023-04-09T00:39:09;1237.97;;;660.00;;
75156;SDS011;63736;50.076;8.198;2023-04-09T00:41:34;1245.25;;;665.35;;
75156;SDS011;63736;50.076;8.198;2023-04-09T00:44:00;1234.93;;;663.63;;
75156;SDS011;63736;50.076;8.198;2023-04-09T00:46:25;1244.17;;;668.43;;
75156;SDS011;63736;50.076;8.198;2023-04-09T00:48:51;1234.17;;;666.83;;
75156;SDS011;63736;50.076;8.198;2023-04-09T00:51:16;1247.75;;;674.97;;
75156;SDS011;63736;50.076;8.198;2023-04-09T00:53:42;1238.73;;;673.03;;
75156;SDS011;63736;50.076;8.198;2023-04-09T00:56:07;1238.28;;;674.67;;
75156;SDS011;63736;50.076;8.198;2023-04-09T00:58:35;1236.97;;;671.83;;
75156;SDS011;63736;50.076;8.198;2023-04-09T01:01:00;1245.03;;;677.72;;
75156;SDS011;63736;50.076;8.198;2023-04-09T01:03:26;1234.13;;;676.53;;
75156;SDS011;63736;50.076;8.198;2023-04-09T01:06:08;1236.67;;;679.93;;
75156;SDS011;63736;50.076;8.198;2023-04-09T01:08:38;1230.57;;;676.78;;
75156;SDS011;63736;50.076;8.198;2023-04-09T01:11:19;1230.70;;;679.45;;
75156;SDS011;63736;50.076;8.198;2023-04-09T01:16:33;1229.93;;;675.83;;
75156;SDS011;63736;50.076;8.198;2023-04-09T01:22:03;1234.18;;;679.72;;
75156;SDS011;63736;50.076;8.198;2023-04-09T01:24:49;1230.93;;;678.55;;
75156;SDS011;63736;50.076;8.198;2023-04-09T01:27:29;1224.53;;;673.70;;
75156;SDS011;63736;50.076;8.198;2023-04-09T01:30:03;1227.23;;;639.70;;
75156;SDS011;63736;50.076;8.198;2023-04-09T01:32:30;1237.43;;;656.92;;
75156;SDS011;63736;50.076;8.198;2023-04-09T01:34:57;1238.63;;;669.25;;
75156;SDS011;63736;50.076;8.198;2023-04-09T01:37:24;1243.05;;;671.13;;
75156;SDS011;63736;50.076;8.198;2023-04-09T01:39:50;1243.35;;;669.88;;
75156;SDS011;63736;50.076;8.198;2023-04-09T01:42:16;1248.70;;;662.63;;
75156;SDS011;63736;50.076;8.198;2023-04-09T01:44:42;1246.70;;;655.63;;
75156;SDS011;63736;50.076;8.198;2023-04-09T01:47:09;1249.38;;;651.45;;
75156;SDS011;63736;50.076;8.198;2023-04-09T01:49:35;1252.33;;;646.57;;
75156;SDS011;63736;50.076;8.198;2023-04-09T01:52:02;1256.30;;;649.10;;
75156;SDS011;63736;50.076;8.198;2023-04-09T01:54:28;1255.90;;;649.25;;
75156;SDS011;63736;50.076;8.198;2023-04-09T01:56:53;1237.20;;;653.57;;
75156;SDS011;63736;50.076;8.198;2023-04-09T01:59:21;1239.45;;;634.13;;
75156;SDS011;63736;50.076;8.198;2023-04-09T02:01:49;1230.40;;;612.97;;
75156;SDS011;63736;50.076;8.198;2023-04-09T02:04:22;1220.75;;;602.05;;
75156;SDS011;63736;50.076;8.198;2023-04-09T02:07:14;1210.80;;;597.47;;
75156;SDS011;63736;50.076;8.198;2023-04-09T02:09:54;1215.70;;;593.05;;
75156;SDS011;63736;50.076;8.198;2023-04-09T02:12:23;1219.25;;;587.88;;
75156;SDS011;63736;50.076;8.198;2023-04-09T02:14:50;1210.75;;;581.67;;
75156;SDS011;63736;50.076;8.198;2023-04-09T02:17:16;1216.95;;;592.20;;
75156;SDS011;63736;50.076;8.198;2023-04-09T02:19:43;1206.57;;;586.50;;
75156;SDS011;63736;50.076;8.198;2023-04-09T02:22:09;1213.25;;;594.55;;
75156;SDS011;63736;50.076;8.198;2023-04-09T02:24:35;1216.80;;;611.97;;
75156;SDS011;63736;50.076;8.198;2023-04-09T02:27:01;1218.03;;;624.97;;
75156;SDS011;63736;50.076;8.198;2023-04-09T02:29:29;1205.85;;;630.15;;
75156;SDS011;63736;50.076;8.198;2023-04-09T02:31:54;1192.80;;;614.70;;
75156;SDS011;63736;50.076;8.198;2023-04-09T02:34:20;1176.30;;;605.47;;
75156;SDS011;63736;50.076;8.198;2023-04-09T02:36:45;1174.30;;;606.30;;
75156;SDS011;63736;50.076;8.198;2023-04-09T02:39:10;1176.30;;;602.90;;
75156;SDS011;63736;50.076;8.198;2023-04-09T02:41:36;1166.32;;;603.63;;
75156;SDS011;63736;50.076;8.198;2023-04-09T02:44:01;1171.60;;;597.60;;
75156;SDS011;63736;50.076;8.198;2023-04-09T02:46:26;1166.53;;;592.50;;
75156;SDS011;63736;50.076;8.198;2023-04-09T02:48:51;1167.43;;;591.27;;
75156;SDS011;63736;50.076;8.198;2023-04-09T02:51:17;1167.23;;;590.27;;
75156;SDS011;63736;50.076;8.198;2023-04-09T02:53:42;1167.17;;;588.30;;
75156;SDS011;63736;50.076;8.198;2023-04-09T02:56:07;1169.40;;;586.63;;
75156;SDS011;63736;50.076;8.198;2023-04-09T02:58:32;1165.43;;;584.83;;
75156;SDS011;63736;50.076;8.198;2023-04-09T03:00:58;1165.03;;;581.60;;
75156;SDS011;63736;50.076;8.198;2023-04-09T03:03:23;1167.37;;;582.67;;
75156;SDS011;63736;50.076;8.198;2023-04-09T03:05:48;1168.60;;;577.47;;
75156;SDS011;63736;50.076;8.198;2023-04-09T03:08:13;1166.10;;;580.27;;
75156;SDS011;63736;50.076;8.198;2023-04-09T03:10:39;1163.83;;;575.73;;
75156;SDS011;63736;50.076;8.198;2023-04-09T03:13:04;1160.27;;;575.57;;
75156;SDS011;63736;50.076;8.198;2023-04-09T03:15:29;1161.23;;;571.87;;
75156;SDS011;63736;50.076;8.198;2023-04-09T03:17:55;1159.77;;;569.93;;
75156;SDS011;63736;50.076;8.198;2023-04-09T03:20:20;1166.00;;;575.10;;
75156;SDS011;63736;50.076;8.198;2023-04-09T03:22:45;1164.67;;;577.93;;
75156;SDS011;63736;50.076;8.198;2023-04-09T03:25:10;1152.37;;;560.17;;
75156;SDS011;63736;50.076;8.198;2023-04-09T03:27:36;1148.50;;;554.50;;
75156;SDS011;63736;50.076;8.198;2023-04-09T03:30:01;1150.93;;;558.40;;
75156;SDS011;63736;50.076;8.198;2023-04-09T03:32:27;1372.10;;;563.60;;
75156;SDS011;63736;50.076;8.198;2023-04-09T03:34:52;1226.93;;;560.90;;
75156;SDS011;63736;50.076;8.198;2023-04-09T03:37:17;1203.70;;;566.93;;
75156;SDS011;63736;50.076;8.198;2023-04-09T03:39:42;1185.57;;;576.70;;
75156;SDS011;63736;50.076;8.198;2023-04-09T03:42:08;1164.70;;;566.77;;
75156;SDS011;63736;50.076;8.198;2023-04-09T03:44:33;1159.43;;;568.50;;
75156;SDS011;63736;50.076;8.198;2023-04-09T03:46:58;1154.53;;;567.07;;
75156;SDS011;63736;50.076;8.198;2023-04-09T03:49:24;1151.88;;;555.70;;
75156;SDS011;63736;50.076;8.198;2023-04-09T03:51:49;1357.97;;;554.30;;
75156;SDS011;63736;50.076;8.198;2023-04-09T03:54:15;1450.27;;;581.43;;
75156;SDS011;63736;50.076;8.198;2023-04-09T03:56:40;1283.72;;;572.42;;
75156;SDS011;63736;50.076;8.198;2023-04-09T03:59:05;1222.50;;;575.20;;
75156;SDS011;63736;50.076;8.198;2023-04-09T04:01:31;1190.10;;;560.30;;
75156;SDS011;63736;50.076;8.198;2023-04-09T04:03:56;1176.33;;;543.33;;
75156;SDS011;63736;50.076;8.198;2023-04-09T04:06:21;1163.80;;;535.93;;
75156;SDS011;63736;50.076;8.198;2023-04-09T04:08:47;1149.83;;;532.53;;
75156;SDS011;63736;50.076;8.198;2023-04-09T04:11:12;1138.30;;;523.87;;
75156;SDS011;63736;50.076;8.198;2023-04-09T04:13:37;1129.33;;;520.13;;
75156;SDS011;63736;50.076;8.198;2023-04-09T04:16:05;1118.72;;;514.63;;
75156;SDS011;63736;50.076;8.198;2023-04-09T04:18:31;1108.93;;;509.60;;
75156;SDS011;63736;50.076;8.198;2023-04-09T04:20:57;1104.67;;;507.73;;
75156;SDS011;63736;50.076;8.198;2023-04-09T04:23:22;1103.80;;;514.53;;
75156;SDS011;63736;50.076;8.198;2023-04-09T04:25:47;1093.87;;;517.43;;
75156;SDS011;63736;50.076;8.198;2023-04-09T04:28:13;1108.37;;;523.97;;
75156;SDS011;63736;50.076;8.198;2023-04-09T04:30:40;1105.13;;;518.83;;
75156;SDS011;63736;50.076;8.198;2023-04-09T04:33:06;1107.00;;;518.13;;
75156;SDS011;63736;50.076;8.198;2023-04-09T04:35:31;1101.27;;;516.77;;
75156;SDS011;63736;50.076;8.198;2023-04-09T04:37:57;1095.27;;;509.77;;
75156;SDS011;63736;50.076;8.198;2023-04-09T04:40:22;1103.17;;;526.20;;
75156;SDS011;63736;50.076;8.198;2023-04-09T04:42:47;1099.03;;;520.43;;
75156;SDS011;63736;50.076;8.198;2023-04-09T04:45:13;1088.40;;;517.57;;
75156;SDS011;63736;50.076;8.198;2023-04-09T04:47:38;1293.80;;;518.03;;
75156;SDS011;63736;50.076;8.198;2023-04-09T04:50:03;1185.83;;;517.00;;
75156;SDS011;63736;50.076;8.198;2023-04-09T04:52:30;1152.05;;;529.95;;
75156;SDS011;63736;50.076;8.198;2023-04-09T04:54:55;1123.83;;;523.10;;
75156;SDS011;63736;50.076;8.198;2023-04-09T04:57:20;1104.23;;;511.93;;
75156;SDS011;63736;50.076;8.198;2023-04-09T04:59:46;1097.40;;;507.37;;
75156;SDS011;63736;50.076;8.198;2023-04-09T05:02:11;1099.03;;;505.90;;
75156;SDS011;63736;50.076;8.198;2023-04-09T05:04:36;1094.07;;;505.37;;
75156;SDS011;63736;50.076;8.198;2023-04-09T05:07:01;1087.57;;;504.87;;
75156;SDS011;63736;50.076;8.198;2023-04-09T05:09:27;1084.17;;;503.80;;
75156;SDS011;63736;50.076;8.198;2023-04-09T05:11:52;1078.13;;;502.60;;
75156;SDS011;63736;50.076;8.198;2023-04-09T05:14:17;1082.90;;;505.30;;
75156;SDS011;63736;50.076;8.198;2023-04-09T05:16:44;1073.78;;;498.35;;
75156;SDS011;63736;50.076;8.198;2023-04-09T05:19:10;1082.27;;;502.43;;
75156;SDS011;63736;50.076;8.198;2023-04-09T05:21:35;1078.53;;;497.03;;
75156;SDS011;63736;50.076;8.198;2023-04-09T05:24:01;1081.47;;;496.80;;
75156;SDS011;63736;50.076;8.198;2023-04-09T05:26:26;1082.77;;;497.37;;
75156;SDS011;63736;50.076;8.198;2023-04-09T05:28:51;1089.00;;;501.20;;
75156;SDS011;63736;50.076;8.198;2023-04-09T05:31:17;1088.23;;;496.97;;
75156;SDS011;63736;50.076;8.198;2023-04-09T05:33:42;1101.70;;;505.77;;
75156;SDS011;63736;50.076;8.198;2023-04-09T05:36:07;1115.97;;;519.63;;
75156;SDS011;63736;50.076;8.198;2023-04-09T05:38:33;1121.27;;;530.23;;
75156;SDS011;63736;50.076;8.198;2023-04-09T05:40:58;1123.43;;;523.30;;
75156;SDS011;63736;50.076;8.198;2023-04-09T05:43:24;1157.40;;;554.17;;
75156;SDS011;63736;50.076;8.198;2023-04-09T05:45:50;1162.90;;;568.73;;
75156;SDS011;63736;50.076;8.198;2023-04-09T05:48:15;1180.23;;;531.37;;
75156;SDS011;63736;50.076;8.198;2023-04-09T05:50:42;1198.95;;;521.63;;
75156;SDS011;63736;50.076;8.198;2023-04-09T05:53:13;1227.05;;;541.78;;
75156;SDS011;63736;50.076;8.198;2023-04-09T05:55:38;1251.13;;;553.90;;
75156;SDS011;63736;50.076;8.198;2023-04-09T05:58:03;1284.30;;;562.50;;
75156;SDS011;63736;50.076;8.198;2023-04-09T06:00:29;1344.60;;;645.70;;
75156;SDS011;63736;50.076;8.198;2023-04-09T06:02:54;1371.73;;;711.47;;
75156;SDS011;63736;50.076;8.198;2023-04-09T06:05:19;1376.63;;;582.33;;
75156;SDS011;63736;50.076;8.198;2023-04-09T06:07:45;1405.22;;;556.78;;
75156;SDS011;63736;50.076;8.198;2023-04-09T06:10:10;1414.10;;;557.23;;
75156;SDS011;63736;50.076;8.198;2023-04-09T06:12:35;1446.53;;;555.37;;
75156;SDS011;63736;50.076;8.198;2023-04-09T06:15:02;1454.00;;;550.17;;
75156;SDS011;63736;50.076;8.198;2023-04-09T06:17:28;1472.25;;;558.05;;
75156;SDS011;63736;50.076;8.198;2023-04-09T06:19:53;1476.70;;;549.47;;
75156;SDS011;63736;50.076;8.198;2023-04-09T06:22:19;1486.00;;;556.38;;
75156;SDS011;63736;50.076;8.198;2023-04-09T06:24:44;1496.50;;;551.17;;
75156;SDS011;63736;50.076;8.198;2023-04-09T06:27:09;1497.87;;;550.40;;
75156;SDS011;63736;50.076;8.198;2023-04-09T06:29:35;1542.43;;;575.70;;
75156;SDS011;63736;50.076;8.198;2023-04-09T06:32:00;1451.17;;;560.17;;
75156;SDS011;63736;50.076;8.198;2023-04-09T06:34:25;1602.90;;;592.90;;
75156;SDS011;63736;50.076;8.198;2023-04-09T06:36:50;1614.33;;;585.17;;
75156;SDS011;63736;50.076;8.198;2023-04-09T06:39:16;1617.65;;;577.53;;
75156;SDS011;63736;50.076;8.198;2023-04-09T06:41:41;1655.73;;;592.70;;
75156;SDS011;63736;50.076;8.198;2023-04-09T06:44:06;1631.80;;;576.77;;
75156;SDS011;63736;50.076;8.198;2023-04-09T06:46:32;1655.47;;;588.57;;
75156;SDS011;63736;50.076;8.198;2023-04-09T06:48:57;1669.47;;;591.90;;
75156;SDS011;63736;50.076;8.198;2023-04-09T06:51:22;1707.43;;;589.43;;
75156;SDS011;63736;50.076;8.198;2023-04-09T06:53:47;1721.87;;;590.63;;
75156;SDS011;63736;50.076;8.198;2023-04-09T06:56:13;1709.75;;;574.80;;
75156;SDS011;63736;50.076;8.198;2023-04-09T06:58:39;1707.90;;;578.43;;
75156;SDS011;63736;50.076;8.198;2023-04-09T07:01:04;1708.70;;;574.40;;
75156;SDS011;63736;50.076;8.198;2023-04-09T07:03:30;1707.63;;;575.28;;
75156;SDS011;63736;50.076;8.198;2023-04-09T07:05:55;1722.53;;;576.07;;
75156;SDS011;63736;50.076;8.198;2023-04-09T07:08:21;1727.40;;;574.22;;
75156;SDS011;63736;50.076;8.198;2023-04-09T07:10:47;1721.97;;;571.27;;
75156;SDS011;63736;50.076;8.198;2023-04-09T07:13:12;1713.77;;;568.13;;
75156;SDS011;63736;50.076;8.198;2023-04-09T07:15:37;1710.13;;;569.87;;
75156;SDS011;63736;50.076;8.198;2023-04-09T07:18:03;1795.50;;;599.93;;
75156;SDS011;63736;50.076;8.198;2023-04-09T07:20:28;1876.23;;;633.57;;
75156;SDS011;63736;50.076;8.198;2023-04-09T07:22:53;1902.93;;;683.60;;
75156;SDS011;63736;50.076;8.198;2023-04-09T07:25:19;1906.63;;;658.63;;
75156;SDS011;63736;50.076;8.198;2023-04-09T07:27:45;1871.63;;;615.65;;
75156;SDS011;63736;50.076;8.198;2023-04-09T07:30:10;1891.90;;;619.13;;
75156;SDS011;63736;50.076;8.198;2023-04-09T07:32:36;1908.30;;;624.37;;
75156;SDS011;63736;50.076;8.198;2023-04-09T07:35:02;1904.50;;;602.78;;
75156;SDS011;63736;50.076;8.198;2023-04-09T07:37:29;1894.63;;;593.45;;
75156;SDS011;63736;50.076;8.198;2023-04-09T07:39:55;1884.17;;;590.10;;
75156;SDS011;63736;50.076;8.198;2023-04-09T07:42:20;1875.17;;;586.63;;
75156;SDS011;63736;50.076;8.198;2023-04-09T07:44:46;1871.17;;;567.80;;
75156;SDS011;63736;50.076;8.198;2023-04-09T07:47:11;1894.43;;;579.22;;
75156;SDS011;63736;50.076;8.198;2023-04-09T07:49:36;1889.73;;;579.30;;
75156;SDS011;63736;50.076;8.198;2023-04-09T07:52:02;1862.53;;;563.73;;
75156;SDS011;63736;50.076;8.198;2023-04-09T07:54:28;1792.45;;;547.38;;
75156;SDS011;63736;50.076;8.198;2023-04-09T07:56:55;1902.45;;;574.45;;
75156;SDS011;63736;50.076;8.198;2023-04-09T07:59:21;1863.30;;;560.67;;
75156;SDS011;63736;50.076;8.198;2023-04-09T08:01:47;1920.10;;;585.13;;
75156;SDS011;63736;50.076;8.198;2023-04-09T08:04:12;1920.80;;;584.83;;
75156;SDS011;63736;50.076;8.198;2023-04-09T08:06:37;1903.47;;;576.10;;
75156;SDS011;63736;50.076;8.198;2023-04-09T08:09:03;1908.78;;;575.88;;
75156;SDS011;63736;50.076;8.198;2023-04-09T08:11:28;1913.17;;;586.70;;
75156;SDS011;63736;50.076;8.198;2023-04-09T08:13:54;1907.13;;;582.77;;
75156;SDS011;63736;50.076;8.198;2023-04-09T08:16:20;1901.05;;;581.22;;
75156;SDS011;63736;50.076;8.198;2023-04-09T08:18:48;1894.17;;;583.37;;
75156;SDS011;63736;50.076;8.198;2023-04-09T08:21:14;1893.45;;;582.60;;
75156;SDS011;63736;50.076;8.198;2023-04-09T08:23:40;1887.40;;;576.65;;
75156;SDS011;63736;50.076;8.198;2023-04-09T08:26:05;1881.47;;;571.77;;
75156;SDS011;63736;50.076;8.198;2023-04-09T08:28:30;1889.83;;;577.70;;
75156;SDS011;63736;50.076;8.198;2023-04-09T08:30:56;1877.43;;;573.13;;
75156;SDS011;63736;50.076;8.198;2023-04-09T08:33:21;1888.00;;;570.85;;
75156;SDS011;63736;50.076;8.198;2023-04-09T08:35:46;1882.80;;;574.63;;
75156;SDS011;63736;50.076;8.198;2023-04-09T08:38:12;1895.27;;;576.10;;
75156;SDS011;63736;50.076;8.198;2023-04-09T08:40:37;1894.37;;;579.23;;
75156;SDS011;63736;50.076;8.198;2023-04-09T08:43:06;1890.43;;;575.50;;
75156;SDS011;63736;50.076;8.198;2023-04-09T08:45:32;1886.95;;;577.78;;
75156;SDS011;63736;50.076;8.198;2023-04-09T08:47:58;1879.33;;;574.77;;
75156;SDS011;63736;50.076;8.198;2023-04-09T08:50:25;1874.40;;;571.28;;
75156;SDS011;63736;50.076;8.198;2023-04-09T08:52:50;1894.60;;;579.85;;
75156;SDS011;63736;50.076;8.198;2023-04-09T08:55:17;1880.45;;;575.65;;
75156;SDS011;63736;50.076;8.198;2023-04-09T08:57:42;1947.17;;;612.90;;
75156;SDS011;63736;50.076;8.198;2023-04-09T09:00:08;1922.47;;;607.53;;
75156;SDS011;63736;50.076;8.198;2023-04-09T09:02:34;1901.45;;;602.00;;
75156;SDS011;63736;50.076;8.198;2023-04-09T09:04:59;1910.13;;;613.03;;
75156;SDS011;63736;50.076;8.198;2023-04-09T09:07:28;1884.97;;;600.30;;
75156;SDS011;63736;50.076;8.198;2023-04-09T09:09:58;1866.40;;;589.70;;
75156;SDS011;63736;50.076;8.198;2023-04-09T09:12:30;1869.38;;;597.47;;
75156;SDS011;63736;50.076;8.198;2023-04-09T09:17:54;1861.13;;;586.30;;
75156;SDS011;63736;50.076;8.198;2023-04-09T09:20:21;1863.22;;;584.60;;
75156;SDS011;63736;50.076;8.198;2023-04-09T09:22:47;1873.90;;;589.53;;
75156;SDS011;63736;50.076;8.198;2023-04-09T09:25:14;1873.18;;;593.90;;
75156;SDS011;63736;50.076;8.198;2023-04-09T09:27:40;1878.13;;;591.23;;
75156;SDS011;63736;50.076;8.198;2023-04-09T09:30:05;1877.53;;;583.00;;
75156;SDS011;63736;50.076;8.198;2023-04-09T09:32:32;1902.38;;;594.88;;
75156;SDS011;63736;50.076;8.198;2023-04-09T09:35:02;1877.10;;;590.37;;
75156;SDS011;63736;50.076;8.198;2023-04-09T09:37:29;1875.70;;;591.38;;
75156;SDS011;63736;50.076;8.198;2023-04-09T09:39:55;1865.50;;;583.90;;
75156;SDS011;63736;50.076;8.198;2023-04-09T09:42:21;1867.47;;;592.25;;
75156;SDS011;63736;50.076;8.198;2023-04-09T09:44:46;1863.40;;;587.33;;
75156;SDS011;63736;50.076;8.198;2023-04-09T09:47:12;1858.67;;;584.70;;
75156;SDS011;63736;50.076;8.198;2023-04-09T09:49:38;1859.70;;;588.83;;
75156;SDS011;63736;50.076;8.198;2023-04-09T09:52:05;1861.13;;;584.42;;
75156;SDS011;63736;50.076;8.198;2023-04-09T09:54:37;1852.50;;;590.27;;
75156;SDS011;63736;50.076;8.198;2023-04-09T09:57:06;1850.82;;;588.97;;
75156;SDS011;63736;50.076;8.198;2023-04-09T09:59:36;1840.28;;;583.40;;
75156;SDS011;63736;50.076;8.198;2023-04-09T10:02:05;1875.47;;;601.85;;
75156;SDS011;63736;50.076;8.198;2023-04-09T10:04:44;1855.50;;;598.80;;
75156;SDS011;63736;50.076;8.198;2023-04-09T10:07:10;1879.90;;;612.33;;
75156;SDS011;63736;50.076;8.198;2023-04-09T10:09:37;1884.65;;;620.63;;
75156;SDS011;63736;50.076;8.198;2023-04-09T10:12:06;1869.43;;;622.65;;
75156;SDS011;63736;50.076;8.198;2023-04-09T10:14:33;1834.80;;;614.53;;
75156;SDS011;63736;50.076;8.198;2023-04-09T10:16:59;1812.13;;;598.30;;
75156;SDS011;63736;50.076;8.198;2023-04-09T10:19:26;1805.53;;;599.17;;
75156;SDS011;63736;50.076;8.198;2023-04-09T10:21:58;1790.28;;;592.22;;
75156;SDS011;63736;50.076;8.198;2023-04-09T10:24:32;1789.57;;;597.15;;
75156;SDS011;63736;50.076;8.198;2023-04-09T10:27:08;1756.22;;;598.38;;
75156;SDS011;63736;50.076;8.198;2023-04-09T10:29:44;1759.25;;;608.83;;
75156;SDS011;63736;50.076;8.198;2023-04-09T10:32:11;1715.23;;;586.13;;
75156;SDS011;63736;50.076;8.198;2023-04-09T10:34:41;1727.75;;;614.25;;
75156;SDS011;63736;50.076;8.198;2023-04-09T10:37:08;1730.53;;;613.05;;
75156;SDS011;63736;50.076;8.198;2023-04-09T10:39:44;1739.10;;;624.95;;
75156;SDS011;63736;50.076;8.198;2023-04-09T10:42:12;1727.60;;;621.00;;
75156;SDS011;63736;50.076;8.198;2023-04-09T10:44:39;1697.87;;;601.17;;
75156;SDS011;63736;50.076;8.198;2023-04-09T10:47:08;1709.90;;;613.35;;
75156;SDS011;63736;50.076;8.198;2023-04-09T10:49:35;1686.57;;;606.70;;
75156;SDS011;63736;50.076;8.198;2023-04-09T10:52:09;1690.72;;;607.47;;
75156;SDS011;63736;50.076;8.198;2023-04-09T10:54:47;1669.68;;;600.67;;
75156;SDS011;63736;50.076;8.198;2023-04-09T10:57:16;1644.20;;;589.53;;
75156;SDS011;63736;50.076;8.198;2023-04-09T10:59:43;1646.43;;;585.10;;
75156;SDS011;63736;50.076;8.198;2023-04-09T11:07:43;1639.03;;;573.03;;
75156;SDS011;63736;50.076;8.198;2023-04-09T11:10:11;1634.40;;;571.50;;
75156;SDS011;63736;50.076;8.198;2023-04-09T11:12:36;1652.03;;;577.42;;
75156;SDS011;63736;50.076;8.198;2023-04-09T11:15:02;1667.43;;;581.87;;
75156;SDS011;63736;50.076;8.198;2023-04-09T11:17:27;1659.30;;;575.60;;
75156;SDS011;63736;50.076;8.198;2023-04-09T11:19:54;1660.88;;;572.33;;
75156;SDS011;63736;50.076;8.198;2023-04-09T11:22:19;1665.95;;;576.20;;
75156;SDS011;63736;50.076;8.198;2023-04-09T11:24:45;1666.83;;;579.60;;
75156;SDS011;63736;50.076;8.198;2023-04-09T11:27:11;1666.53;;;576.57;;
75156;SDS011;63736;50.076;8.198;2023-04-09T11:29:36;1660.97;;;575.80;;
75156;SDS011;63736;50.076;8.198;2023-04-09T11:32:03;1672.90;;;583.20;;
75156;SDS011;63736;50.076;8.198;2023-04-09T11:34:29;1664.93;;;580.28;;
75156;SDS011;63736;50.076;8.198;2023-04-09T11:36:55;1652.43;;;574.60;;
75156;SDS011;63736;50.076;8.198;2023-04-09T11:39:22;1669.20;;;580.53;;
75156;SDS011;63736;50.076;8.198;2023-04-09T11:41:48;1658.47;;;575.05;;
75156;SDS011;63736;50.076;8.198;2023-04-09T11:44:13;1652.93;;;575.67;;
75156;SDS011;63736;50.076;8.198;2023-04-09T11:46:39;1630.03;;;568.60;;
75156;SDS011;63736;50.076;8.198;2023-04-09T11:49:05;1652.35;;;580.95;;
75156;SDS011;63736;50.076;8.198;2023-04-09T11:51:30;1633.60;;;577.60;;
75156;SDS011;63736;50.076;8.198;2023-04-09T11:54:00;1638.88;;;577.10;;
75156;SDS011;63736;50.076;8.198;2023-04-09T11:56:30;1628.75;;;573.85;;
75156;SDS011;63736;50.076;8.198;2023-04-09T11:58:56;1638.63;;;579.03;;
75156;SDS011;63736;50.076;8.198;2023-04-09T12:01:22;1645.85;;;574.97;;
75156;SDS011;63736;50.076;8.198;2023-04-09T12:03:54;1662.80;;;579.95;;
75156;SDS011;63736;50.076;8.198;2023-04-09T12:06:20;1658.87;;;582.07;;
75156;SDS011;63736;50.076;8.198;2023-04-09T12:08:55;1669.65;;;577.83;;
75156;SDS011;63736;50.076;8.198;2023-04-09T12:11:29;1676.28;;;576.42;;
75156;SDS011;63736;50.076;8.198;2023-04-09T12:14:02;1702.57;;;591.60;;
75156;SDS011;63736;50.076;8.198;2023-04-09T12:16:31;1685.57;;;583.35;;
75156;SDS011;63736;50.076;8.198;2023-04-09T12:19:01;1689.17;;;583.83;;
75156;SDS011;63736;50.076;8.198;2023-04-09T12:24:12;1685.82;;;588.20;;
75156;SDS011;63736;50.076;8.198;2023-04-09T12:26:38;1675.30;;;584.17;;
75156;SDS011;63736;50.076;8.198;2023-04-09T12:29:03;1669.17;;;585.40;;
75156;SDS011;63736;50.076;8.198;2023-04-09T12:31:28;1656.17;;;576.57;;
75156;SDS011;63736;50.076;8.198;2023-04-09T12:33:54;1654.73;;;577.23;;
75156;SDS011;63736;50.076;8.198;2023-04-09T12:36:19;1657.37;;;576.13;;
75156;SDS011;63736;50.076;8.198;2023-04-09T12:38:44;1656.40;;;572.60;;
75156;SDS011;63736;50.076;8.198;2023-04-09T12:41:10;1666.57;;;579.30;;
75156;SDS011;63736;50.076;8.198;2023-04-09T12:43:35;1647.82;;;574.25;;
75156;SDS011;63736;50.076;8.198;2023-04-09T12:46:01;1648.77;;;575.43;;
75156;SDS011;63736;50.076;8.198;2023-04-09T12:48:26;1636.33;;;564.77;;
75156;SDS011;63736;50.076;8.198;2023-04-09T12:50:51;1635.43;;;576.23;;
75156;SDS011;63736;50.076;8.198;2023-04-09T12:53:17;1633.13;;;574.33;;
75156;SDS011;63736;50.076;8.198;2023-04-09T12:55:42;1628.63;;;579.87;;
75156;SDS011;63736;50.076;8.198;2023-04-09T12:58:07;1624.73;;;568.23;;
75156;SDS011;63736;50.076;8.198;2023-04-09T13:00:33;1636.93;;;575.00;;
75156;SDS011;63736;50.076;8.198;2023-04-09T13:02:58;1638.40;;;573.90;;
75156;SDS011;63736;50.076;8.198;2023-04-09T13:05:24;1641.07;;;577.43;;
75156;SDS011;63736;50.076;8.198;2023-04-09T13:07:49;1647.43;;;578.07;;
75156;SDS011;63736;50.076;8.198;2023-04-09T13:10:15;1642.90;;;572.20;;
75156;SDS011;63736;50.076;8.198;2023-04-09T13:12:40;1645.87;;;576.80;;
75156;SDS011;63736;50.076;8.198;2023-04-09T13:15:06;1646.33;;;575.43;;
75156;SDS011;63736;50.076;8.198;2023-04-09T13:17:31;1633.27;;;568.83;;
75156;SDS011;63736;50.076;8.198;2023-04-09T13:19:56;1644.60;;;575.20;;
75156;SDS011;63736;50.076;8.198;2023-04-09T13:22:21;1640.50;;;568.20;;
75156;SDS011;63736;50.076;8.198;2023-04-09T13:24:47;1642.18;;;575.55;;
75156;SDS011;63736;50.076;8.198;2023-04-09T13:27:12;1643.40;;;575.77;;
75156;SDS011;63736;50.076;8.198;2023-04-09T13:29:38;1630.80;;;569.97;;
75156;SDS011;63736;50.076;8.198;2023-04-09T13:32:03;1644.87;;;572.60;;
75156;SDS011;63736;50.076;8.198;2023-04-09T13:34:31;1625.63;;;562.88;;
75156;SDS011;63736;50.076;8.198;2023-04-09T13:36:58;1839.43;;;574.28;;
75156;SDS011;63736;50.076;8.198;2023-04-09T13:39:23;1717.40;;;583.03;;
75156;SDS011;63736;50.076;8.198;2023-04-09T13:41:48;1692.50;;;577.87;;
75156;SDS011;63736;50.076;8.198;2023-04-09T13:44:13;1656.80;;;566.63;;
75156;SDS011;63736;50.076;8.198;2023-04-09T13:46:39;1655.28;;;568.80;;
75156;SDS011;63736;50.076;8.198;2023-04-09T13:49:04;1646.50;;;563.07;;
75156;SDS011;63736;50.076;8.198;2023-04-09T13:51:30;1638.67;;;561.90;;
75156;SDS011;63736;50.076;8.198;2023-04-09T13:53:55;1857.47;;;561.00;;
75156;SDS011;63736;50.076;8.198;2023-04-09T13:56:21;1761.18;;;592.90;;